Time;durP1;ratioP1;P1;durP2;ratioP2;P2;SDS_P1;SDS_P2;PMS_P1;PMS_P2;Temp;Humidity;BMP_temperature;BMP_pressure;BME280_temperature;BME280_humidity;BME280_pressure;Samples;Min_cycle;Max_cycle;Signal;HPM_P1;HPM_P2
2023/04/28 00:01:36;;;;;;;13.97;9.47;;;4.80;99.90;;;;;;5040186;22;20601;-80
2023/04/28 00:04:03;;;;;;;12.33;9.50;;;4.80;99.90;;;;;;5040622;28;20225;-80
2023/04/28 00:06:30;;;;;;;16.37;9.37;;;4.90;99.90;;;;;;5037957;28;20233;-80
2023/04/28 00:08:59;;;;;;;10.93;8.83;;;4.80;99.90;;;;;;5038063;28;20224;-80
2023/04/28 00:11:26;;;;;;;11.30;8.53;;;4.90;99.90;;;;;;5043384;28;20255;-81
2023/04/28 00:13:53;;;;;;;12.33;8.87;;;4.80;99.90;;;;;;5040453;28;20229;-81
2023/04/28 00:16:19;;;;;;;12.87;9.00;;;4.80;99.90;;;;;;5037246;28;20782;-80
2023/04/28 00:18:46;;;;;;;12.97;9.00;;;4.80;99.90;;;;;;5030630;28;20288;-80
2023/04/28 00:21:13;;;;;;;12.67;8.37;;;4.80;99.90;;;;;;5038108;28;20217;-80
2023/04/28 00:23:40;;;;;;;10.87;8.73;;;4.80;99.90;;;;;;5043254;28;20517;-80
2023/04/28 00:26:08;;;;;;;14.97;9.50;;;4.80;99.90;;;;;;5037992;28;20317;-80
2023/04/28 00:28:35;;;;;;;11.80;8.83;;;4.70;99.90;;;;;;5040179;28;20248;-80
2023/04/28 00:31:02;;;;;;;11.43;9.00;;;4.70;99.90;;;;;;5034604;28;20231;-80
2023/04/28 00:33:31;;;;;;;11.73;8.00;;;4.70;99.90;;;;;;5007468;28;21198;-81
2023/04/28 00:36:01;;;;;;;15.07;9.00;;;4.70;99.90;;;;;;5037551;28;20325;-81
2023/04/28 00:38:27;;;;;;;14.87;8.80;;;4.60;99.90;;;;;;5043418;28;20783;-81
2023/04/28 00:40:54;;;;;;;13.70;9.10;;;4.70;99.90;;;;;;5040972;28;20279;-81
2023/04/28 00:43:22;;;;;;;13.93;8.33;;;4.60;99.90;;;;;;5036342;28;20968;-81
2023/04/28 00:45:49;;;;;;;11.80;8.00;;;4.50;99.90;;;;;;5038013;28;20233;-81
2023/04/28 00:48:17;;;;;;;13.43;9.00;;;4.50;99.90;;;;;;5036709;28;20221;-81
2023/04/28 00:50:44;;;;;;;12.77;8.27;;;4.50;99.90;;;;;;5043389;28;20237;-81
2023/04/28 00:53:11;;;;;;;11.87;8.53;;;4.50;99.90;;;;;;5040176;28;20219;-81
2023/04/28 00:55:39;;;;;;;12.90;8.83;;;4.40;99.90;;;;;;5035622;28;20233;-81
2023/04/28 00:58:07;;;;;;;13.83;9.13;;;4.40;99.90;;;;;;5034007;28;20224;-81
2023/04/28 01:00:35;;;;;;;11.03;8.27;;;4.40;99.90;;;;;;5038416;28;20234;-81
2023/04/28 01:03:02;;;;;;;11.67;9.20;;;4.30;99.90;;;;;;5038966;28;20681;-81
2023/04/28 01:05:33;;;;;;;11.47;9.00;;;4.30;99.90;;;;;;5032246;28;20742;-82
2023/04/28 01:08:00;;;;;;;11.73;8.73;;;4.20;99.90;;;;;;5038836;28;20247;-82
2023/04/28 01:10:27;;;;;;;13.30;8.80;;;4.20;99.90;;;;;;5032633;28;20362;-81
2023/04/28 01:12:55;;;;;;;13.20;7.87;;;4.10;99.90;;;;;;5037449;28;20227;-82
2023/04/28 01:15:22;;;;;;;10.70;8.27;;;4.10;99.90;;;;;;5033147;28;20244;-81
2023/04/28 01:17:53;;;;;;;11.37;8.70;;;4.00;99.90;;;;;;5040570;28;20231;-81
2023/04/28 01:20:19;;;;;;;11.87;8.70;;;3.90;99.90;;;;;;5039056;28;20233;-81
2023/04/28 01:22:46;;;;;;;13.93;9.60;;;3.90;99.90;;;;;;5041018;28;20325;-81
2023/04/28 01:25:15;;;;;;;12.37;8.77;;;3.80;99.90;;;;;;5036043;28;20726;-81
2023/04/28 01:27:42;;;;;;;12.67;8.33;;;3.80;99.90;;;;;;5041812;28;20262;-80
2023/04/28 01:30:09;;;;;;;13.30;8.93;;;3.70;99.90;;;;;;5039282;28;20225;-81
2023/04/28 01:32:36;;;;;;;12.77;9.00;;;3.60;99.90;;;;;;5040357;28;20237;-81
2023/04/28 01:35:03;;;;;;;15.00;8.93;;;3.60;99.90;;;;;;5037185;28;20468;-81
2023/04/28 01:37:30;;;;;;;15.20;9.17;;;3.60;99.90;;;;;;5035552;28;20228;-81
2023/04/28 01:39:57;;;;;;;12.77;9.43;;;3.50;99.90;;;;;;5043915;28;20239;-81
2023/04/28 01:42:26;;;;;;;13.27;9.50;;;3.50;99.90;;;;;;5037888;28;20231;-80
2023/04/28 01:44:53;;;;;;;11.43;8.43;;;3.50;99.90;;;;;;5057082;28;20309;-80
2023/04/28 01:47:20;;;;;;;13.50;9.73;;;3.50;99.90;;;;;;5038040;28;20280;-80
2023/04/28 01:49:48;;;;;;;12.00;9.33;;;3.40;99.90;;;;;;5036939;28;20318;-80
2023/04/28 01:52:15;;;;;;;14.30;9.70;;;3.40;99.90;;;;;;5033944;28;20231;-81
2023/04/28 01:54:42;;;;;;;13.67;9.87;;;3.40;99.90;;;;;;5035618;28;20304;-81
2023/04/28 01:57:09;;;;;;;17.23;10.17;;;3.40;99.90;;;;;;5036421;28;20280;-80
2023/04/28 01:59:38;;;;;;;13.03;9.53;;;3.50;99.90;;;;;;5037771;28;20235;-80
2023/04/28 02:02:06;;;;;;;12.07;8.90;;;3.40;99.90;;;;;;5034909;28;20222;-80
2023/04/28 02:04:34;;;;;;;15.90;8.87;;;3.40;99.90;;;;;;5040937;28;20234;-81
2023/04/28 02:07:00;;;;;;;12.03;8.70;;;3.40;99.90;;;;;;5032205;28;20977;-81
2023/04/28 02:09:27;;;;;;;14.37;8.90;;;3.40;99.90;;;;;;5040903;28;20222;-80
2023/04/28 02:11:58;;;;;;;13.60;9.33;;;3.30;99.90;;;;;;5041484;28;20294;-81
2023/04/28 02:14:25;;;;;;;13.03;8.70;;;3.30;99.90;;;;;;5035574;28;20582;-80
2023/04/28 02:16:54;;;;;;;13.13;8.53;;;3.20;99.90;;;;;;5028296;28;20246;-80
2023/04/28 02:19:20;;;;;;;11.53;8.77;;;3.20;99.90;;;;;;5038470;28;20226;-80
2023/04/28 02:21:47;;;;;;;13.07;9.03;;;3.20;99.90;;;;;;5033655;28;20235;-81
2023/04/28 02:24:14;;;;;;;13.23;9.53;;;3.20;99.90;;;;;;5040034;28;20231;-79
2023/04/28 02:26:41;;;;;;;15.17;9.70;;;3.10;99.90;;;;;;5035786;28;20281;-80
2023/04/28 02:29:07;;;;;;;14.13;9.10;;;3.10;99.90;;;;;;5040674;28;20291;-80
2023/04/28 02:31:34;;;;;;;14.83;9.07;;;3.10;99.90;;;;;;5042420;28;20281;-81
2023/04/28 02:34:03;;;;;;;12.03;8.57;;;3.10;99.90;;;;;;5054624;28;20770;-80
2023/04/28 02:36:30;;;;;;;16.77;9.87;;;3.00;99.90;;;;;;5039649;28;20261;-79
2023/04/28 02:38:57;;;;;;;13.60;8.40;;;3.00;99.90;;;;;;5038272;28;20335;-80
2023/04/28 02:41:25;;;;;;;13.80;8.40;;;3.00;99.90;;;;;;5036278;28;20222;-80
2023/04/28 02:43:52;;;;;;;11.83;8.33;;;3.00;99.90;;;;;;5037539;28;20236;-80
2023/04/28 02:46:18;;;;;;;11.63;8.23;;;3.00;99.90;;;;;;5039577;28;20237;-80
2023/04/28 02:48:45;;;;;;;11.93;7.70;;;3.00;99.90;;;;;;5040671;28;20226;-80
2023/04/28 02:51:14;;;;;;;13.87;8.63;;;3.00;99.90;;;;;;5036965;28;20248;-80
2023/04/28 02:53:40;;;;;;;12.07;9.23;;;2.90;99.90;;;;;;5053413;28;20513;-80
2023/04/28 02:56:07;;;;;;;14.37;8.73;;;3.00;99.90;;;;;;5038599;28;20757;-80
2023/04/28 02:58:34;;;;;;;13.37;9.27;;;3.00;99.90;;;;;;5042469;28;20227;-80
2023/04/28 03:01:01;;;;;;;13.37;8.37;;;3.00;99.90;;;;;;5040001;28;20224;-80
2023/04/28 03:03:32;;;;;;;11.90;8.27;;;2.90;99.90;;;;;;5040810;28;20254;-80
2023/04/28 03:05:59;;;;;;;13.17;8.10;;;2.90;99.90;;;;;;5037189;28;20222;-80
2023/04/28 03:08:27;;;;;;;14.17;8.90;;;2.90;99.90;;;;;;5037322;28;20218;-80
2023/04/28 03:10:54;;;;;;;11.07;7.47;;;2.80;99.90;;;;;;5034484;28;20296;-80
2023/04/28 03:13:22;;;;;;;12.03;8.37;;;2.80;99.90;;;;;;5036550;28;20225;-81
2023/04/28 03:15:49;;;;;;;11.93;8.17;;;2.80;99.90;;;;;;5041631;28;20712;-83
2023/04/28 03:18:17;;;;;;;13.00;8.20;;;2.90;99.90;;;;;;5037666;28;20224;-82
2023/04/28 03:20:44;;;;;;;12.00;8.50;;;2.80;99.90;;;;;;5034701;28;20240;-80
2023/04/28 03:23:11;;;;;;;12.50;8.70;;;2.80;99.90;;;;;;5055821;28;20227;-80
2023/04/28 03:25:39;;;;;;;11.10;7.67;;;2.70;99.90;;;;;;5043268;28;20236;-80
2023/04/28 03:28:06;;;;;;;10.50;7.90;;;2.80;99.90;;;;;;5033131;28;20228;-81
2023/04/28 03:30:33;;;;;;;10.40;7.60;;;2.70;99.90;;;;;;5039066;28;20263;-81
2023/04/28 03:33:00;;;;;;;12.03;7.50;;;2.70;99.90;;;;;;5056754;28;20611;-81
2023/04/28 03:35:27;;;;;;;10.77;7.50;;;2.70;99.90;;;;;;5038029;28;20253;-81
2023/04/28 03:37:54;;;;;;;9.53;7.30;;;2.70;99.90;;;;;;5042696;28;20229;-81
2023/04/28 03:40:20;;;;;;;10.80;7.77;;;2.70;99.90;;;;;;5039708;28;20332;-81
2023/04/28 03:43:07;;;;;;;9.00;7.60;;;2.70;99.90;;;;;;5042967;28;20351;-81
2023/04/28 03:45:38;;;;;;;13.27;8.07;;;2.70;99.90;;;;;;5036894;28;20718;-81
2023/04/28 03:48:05;;;;;;;10.80;7.63;;;2.70;99.90;;;;;;5038671;28;20672;-81
2023/04/28 03:50:32;;;;;;;9.37;7.00;;;2.60;99.90;;;;;;5040081;28;20244;-81
2023/04/28 03:52:59;;;;;;;11.50;7.43;;;2.70;99.90;;;;;;5043061;28;20262;-81
2023/04/28 03:55:27;;;;;;;8.40;7.00;;;2.60;99.90;;;;;;5040772;28;20233;-82
2023/04/28 03:57:54;;;;;;;11.30;7.73;;;2.60;99.90;;;;;;5037879;28;20226;-81
2023/04/28 04:00:22;;;;;;;10.97;7.73;;;2.60;99.90;;;;;;5038596;28;20232;-82
2023/04/28 04:02:54;;;;;;;9.87;7.67;;;2.60;99.90;;;;;;5035955;28;20301;-81
2023/04/28 04:05:21;;;;;;;11.67;7.73;;;2.70;99.90;;;;;;5042657;28;20319;-81
2023/04/28 04:07:48;;;;;;;11.97;8.70;;;2.60;99.90;;;;;;5041134;28;20220;-81
2023/04/28 04:10:16;;;;;;;12.57;7.80;;;2.60;99.90;;;;;;5039934;28;20804;-80
2023/04/28 04:12:44;;;;;;;10.50;7.60;;;2.60;99.90;;;;;;5040742;28;20737;-80
2023/04/28 04:15:11;;;;;;;11.07;7.30;;;2.60;99.90;;;;;;5034359;28;20218;-80
2023/04/28 04:17:44;;;;;;;9.63;7.07;;;2.60;99.90;;;;;;5040610;28;20274;-80
2023/04/28 04:20:11;;;;;;;9.17;6.63;;;2.70;99.90;;;;;;5038424;28;20216;-80
2023/04/28 04:22:38;;;;;;;10.80;7.33;;;2.70;99.90;;;;;;5044287;28;20260;-81
2023/04/28 04:25:06;;;;;;;8.97;7.07;;;2.70;99.90;;;;;;5035994;28;20224;-81
2023/04/28 04:27:34;;;;;;;11.43;7.67;;;2.70;99.90;;;;;;5037538;28;20281;-80
2023/04/28 04:30:01;;;;;;;12.30;7.87;;;2.70;99.90;;;;;;5036001;28;20225;-82
2023/04/28 04:32:28;;;;;;;11.40;7.93;;;2.80;99.90;;;;;;5040213;28;20231;-81
2023/04/28 04:34:57;;;;;;;10.03;7.33;;;2.80;99.90;;;;;;5033424;28;20299;-81
2023/04/28 04:37:24;;;;;;;9.37;7.40;;;2.90;99.90;;;;;;5053246;28;21823;-81
2023/04/28 04:39:58;;;;;;;8.80;6.77;;;3.00;99.90;;;;;;5039662;28;20281;-81
2023/04/28 04:42:25;;;;;;;11.00;7.73;;;3.00;99.90;;;;;;5030169;28;20233;-81
2023/04/28 04:45:03;;;;;;;12.43;7.83;;;3.10;99.90;;;;;;5037681;28;20850;-80
2023/04/28 04:47:31;;;;;;;12.30;7.23;;;3.20;99.90;;;;;;5034732;28;20217;-80
2023/04/28 04:49:59;;;;;;;9.73;6.90;;;3.20;99.90;;;;;;5031560;28;22268;-80
2023/04/28 04:52:26;;;;;;;9.00;7.00;;;3.30;99.90;;;;;;5039799;28;20240;-81
2023/04/28 04:54:56;;;;;;;11.63;6.90;;;3.30;99.90;;;;;;5043478;28;20225;-81
2023/04/28 04:57:24;;;;;;;10.67;6.70;;;3.40;99.90;;;;;;5038307;28;20345;-81
2023/04/28 05:00:18;;;;;;;10.53;6.70;;;3.40;99.90;;;;;;5034436;28;20324;-81
2023/04/28 05:02:46;;;;;;;12.50;6.37;;;3.50;99.90;;;;;;5042199;28;20766;-81
2023/04/28 05:05:15;;;;;;;9.37;6.20;;;3.50;99.90;;;;;;5038516;28;20231;-81
2023/04/28 05:07:43;;;;;;;13.17;6.77;;;3.50;99.90;;;;;;5038625;28;20231;-82
2023/04/28 05:10:11;;;;;;;10.47;6.47;;;3.60;99.90;;;;;;5032691;28;20278;-82
2023/04/28 05:12:38;;;;;;;9.80;6.40;;;3.60;99.90;;;;;;5034429;28;20825;-81
2023/04/28 05:15:06;;;;;;;9.30;6.40;;;3.70;99.90;;;;;;5037021;28;20233;-81
2023/04/28 05:17:35;;;;;;;9.30;6.27;;;3.70;99.90;;;;;;5037548;28;20324;-81
2023/04/28 05:20:02;;;;;;;7.40;5.73;;;3.70;99.90;;;;;;5041734;28;20241;-82
2023/04/28 05:22:33;;;;;;;8.73;5.77;;;3.80;99.90;;;;;;5034754;28;20233;-80
2023/04/28 05:25:00;;;;;;;7.43;6.07;;;3.90;99.90;;;;;;5037755;28;20820;-80
2023/04/28 05:27:27;;;;;;;8.43;5.97;;;4.00;99.90;;;;;;5039528;28;20248;-80
2023/04/28 05:29:54;;;;;;;10.27;6.23;;;4.00;99.90;;;;;;5035601;28;20759;-84
2023/04/28 05:32:21;;;;;;;8.67;5.80;;;4.10;99.90;;;;;;5039572;28;20230;-82
2023/04/28 05:34:48;;;;;;;7.23;5.63;;;4.10;99.90;;;;;;5036241;28;20270;-84
2023/04/28 05:37:14;;;;;;;8.50;5.90;;;4.10;99.90;;;;;;5037224;28;20837;-83
2023/04/28 05:39:45;;;;;;;6.67;5.70;;;4.20;99.90;;;;;;5033980;28;20264;-83
2023/04/28 05:42:12;;;;;;;7.07;5.17;;;4.30;99.90;;;;;;5054398;28;20238;-82
2023/04/28 05:44:39;;;;;;;8.70;5.30;;;4.30;99.90;;;;;;5037040;28;20874;-83
2023/04/28 05:47:06;;;;;;;6.07;4.77;;;4.40;99.90;;;;;;5036777;28;20288;-83
2023/04/28 05:49:34;;;;;;;7.37;5.30;;;4.40;99.90;;;;;;5039572;28;20222;-83
2023/04/28 05:52:04;;;;;;;6.30;4.57;;;4.50;99.90;;;;;;5036164;28;20617;-83
2023/04/28 05:54:33;;;;;;;5.83;4.90;;;4.60;99.90;;;;;;5039837;28;20305;-83
2023/04/28 05:57:01;;;;;;;7.03;4.80;;;4.70;99.90;;;;;;5035588;28;20589;-83
2023/04/28 05:59:30;;;;;;;7.20;5.20;;;4.70;99.90;;;;;;5036095;28;20222;-83
2023/04/28 06:04:34;;;;;;;8.17;4.93;;;4.90;99.90;;;;;;4994402;28;20218;-80
2023/04/28 06:07:00;;;;;;;5.90;4.70;;;5.00;99.90;;;;;;5000850;28;20253;-81
2023/04/28 06:09:28;;;;;;;8.47;5.37;;;5.10;99.90;;;;;;5001936;28;20231;-81
2023/04/28 06:11:55;;;;;;;5.73;4.53;;;5.20;99.90;;;;;;5004903;28;20248;-80
2023/04/28 06:14:23;;;;;;;6.47;4.30;;;5.40;99.90;;;;;;5003852;28;20776;-81
2023/04/28 06:16:51;;;;;;;6.57;4.43;;;5.50;99.90;;;;;;5006741;28;20230;-81
2023/04/28 06:19:18;;;;;;;7.47;4.03;;;5.60;99.90;;;;;;4988773;28;20830;-80
2023/04/28 06:21:45;;;;;;;6.07;3.60;;;5.70;99.90;;;;;;4983366;28;20239;-81
2023/04/28 06:24:12;;;;;;;7.03;3.70;;;5.80;99.90;;;;;;5005047;28;20249;-83
2023/04/28 06:26:40;;;;;;;7.03;3.80;;;6.00;99.90;;;;;;4998405;28;20779;-84
2023/04/28 06:29:09;;;;;;;5.43;4.20;;;6.20;99.90;;;;;;5011564;28;20296;-83
2023/04/28 06:31:37;;;;;;;7.60;4.00;;;6.40;99.90;;;;;;5017129;28;20255;-84
2023/04/28 06:34:03;;;;;;;7.37;3.83;;;6.60;99.90;;;;;;5011411;28;20298;-84
2023/04/28 06:36:31;;;;;;;4.47;3.60;;;6.90;99.90;;;;;;5007672;28;20277;-82
2023/04/28 06:38:58;;;;;;;5.77;3.53;;;7.10;99.90;;;;;;5014805;28;20278;-81
2023/04/28 06:41:25;;;;;;;5.87;3.17;;;7.30;99.90;;;;;;5009167;28;20979;-82
2023/04/28 06:43:53;;;;;;;5.10;3.30;;;7.60;99.90;;;;;;5006432;28;20713;-81
2023/04/28 06:46:24;;;;;;;5.30;3.03;;;7.80;99.90;;;;;;4990059;28;20260;-81
2023/04/28 06:48:52;;;;;;;4.20;2.80;;;8.10;99.90;;;;;;5009121;28;20722;-81
2023/04/28 06:51:19;;;;;;;3.80;2.60;;;8.30;99.90;;;;;;5003815;28;20226;-80
2023/04/28 06:53:45;;;;;;;5.17;2.93;;;8.50;99.90;;;;;;5010485;28;20232;-80
2023/04/28 06:56:12;;;;;;;5.00;3.03;;;8.80;99.90;;;;;;5002906;28;20233;-81
2023/04/28 06:58:39;;;;;;;4.53;2.47;;;8.90;99.90;;;;;;5006817;28;20978;-80
2023/04/28 07:01:05;;;;;;;7.07;2.60;;;9.10;99.90;;;;;;4992211;28;20287;-80
2023/04/28 07:03:32;;;;;;;4.87;2.90;;;9.30;99.90;;;;;;5010030;28;20521;-80
2023/04/28 07:06:02;;;;;;;4.93;2.73;;;9.40;99.90;;;;;;5003533;28;20245;-79
2023/04/28 07:08:29;;;;;;;4.87;2.60;;;9.60;99.30;;;;;;5012413;28;20242;-81
2023/04/28 07:10:56;;;;;;;4.87;1.93;;;9.70;96.70;;;;;;5007057;28;20295;-81
2023/04/28 07:13:23;;;;;;;2.93;2.37;;;9.90;97.40;;;;;;5007577;28;20228;-82
2023/04/28 07:15:49;;;;;;;3.90;2.33;;;10.10;98.50;;;;;;4998923;28;20228;-79
2023/04/28 07:18:16;;;;;;;5.27;2.37;;;10.40;98.30;;;;;;5001996;28;20221;-81
2023/04/28 07:20:43;;;;;;;4.37;2.27;;;10.70;98.20;;;;;;5004793;28;20256;-82
2023/04/28 07:23:11;;;;;;;4.17;2.20;;;11.10;97.60;;;;;;5003314;28;20583;-79
2023/04/28 07:25:38;;;;;;;4.57;2.60;;;11.50;97.00;;;;;;5006155;28;20227;-80
2023/04/28 07:28:05;;;;;;;3.63;2.40;;;12.00;97.50;;;;;;4984228;28;20791;-79
2023/04/28 07:30:32;;;;;;;5.80;2.30;;;12.50;96.10;;;;;;5005637;28;20306;-81
2023/04/28 07:32:59;;;;;;;2.93;1.97;;;13.00;94.70;;;;;;4983157;28;20711;-79
2023/04/28 07:35:26;;;;;;;4.97;2.00;;;13.60;93.10;;;;;;5009531;28;20310;-79
2023/04/28 07:37:53;;;;;;;3.60;2.60;;;14.00;93.40;;;;;;4993927;28;20323;-79
2023/04/28 07:40:21;;;;;;;3.43;2.23;;;14.40;91.70;;;;;;4999574;28;20306;-84
2023/04/28 07:42:48;;;;;;;5.40;2.27;;;14.70;88.40;;;;;;5006942;28;20231;-81
2023/04/28 07:45:15;;;;;;;4.47;2.20;;;15.00;83.20;;;;;;5008135;28;20223;-78
2023/04/28 07:47:46;;;;;;;5.83;2.37;;;15.10;78.60;;;;;;5000264;28;20228;-80
2023/04/28 07:50:15;;;;;;;3.77;2.00;;;15.20;78.00;;;;;;5003299;28;20220;-82
2023/04/28 07:52:42;;;;;;;6.10;2.43;;;15.20;78.10;;;;;;4981936;28;20304;-80
2023/04/28 07:55:09;;;;;;;5.37;2.60;;;15.30;81.30;;;;;;5006477;28;20604;-80
2023/04/28 07:57:37;;;;;;;3.40;2.50;;;15.40;72.20;;;;;;5009066;28;20239;-78
2023/04/28 08:00:05;;;;;;;2.37;2.13;;;15.40;68.40;;;;;;5012585;28;20230;-78
2023/04/28 08:02:38;;;;;;;7.27;2.63;;;15.60;76.20;;;;;;4999005;28;20270;-79
2023/04/28 08:05:06;;;;;;;2.70;2.20;;;15.80;76.50;;;;;;5009427;28;20252;-81
2023/04/28 08:07:33;;;;;;;3.03;2.20;;;16.00;73.90;;;;;;5013828;28;20233;-79
2023/04/28 08:10:00;;;;;;;3.27;2.40;;;16.20;77.50;;;;;;5012211;28;20231;-79
2023/04/28 08:12:27;;;;;;;4.97;2.50;;;16.50;76.00;;;;;;4971017;28;20228;-81
2023/04/28 08:14:55;;;;;;;4.07;2.33;;;16.60;72.90;;;;;;4971478;28;20222;-79
2023/04/28 08:17:21;;;;;;;5.17;2.53;;;16.80;71.40;;;;;;5011269;28;20666;-79
2023/04/28 08:19:49;;;;;;;4.17;2.57;;;17.00;68.80;;;;;;5011884;28;20308;-78
2023/04/28 08:22:15;;;;;;;3.77;2.10;;;17.00;66.10;;;;;;5011826;28;20225;-79
2023/04/28 08:24:42;;;;;;;4.03;2.77;;;17.10;67.60;;;;;;5013369;28;20232;-80
2023/04/28 08:27:09;;;;;;;5.57;2.50;;;17.00;66.90;;;;;;5012745;28;20233;-79
2023/04/28 08:29:36;;;;;;;4.03;2.53;;;16.90;66.60;;;;;;5016578;28;20255;-80
2023/04/28 08:32:05;;;;;;;5.50;2.77;;;16.80;69.10;;;;;;5010438;28;20346;-80
2023/04/28 08:34:32;;;;;;;4.87;2.90;;;16.60;65.70;;;;;;5014732;28;20245;-83
2023/04/28 08:36:59;;;;;;;6.67;2.93;;;16.60;71.20;;;;;;5008615;28;20228;-81
2023/04/28 08:39:26;;;;;;;3.67;2.90;;;16.60;71.20;;;;;;5011156;28;20237;-79
2023/04/28 08:41:53;;;;;;;5.53;2.80;;;16.60;68.30;;;;;;5013497;28;20231;-79
2023/04/28 08:44:22;;;;;;;5.37;3.00;;;16.50;67.00;;;;;;4988090;28;20308;-81
2023/04/28 08:46:49;;;;;;;5.60;2.73;;;16.50;67.90;;;;;;4993100;28;20247;-81
2023/04/28 08:49:18;;;;;;;4.07;2.50;;;16.40;69.00;;;;;;5002114;28;20221;-79
2023/04/28 08:51:47;;;;;;;6.53;2.90;;;16.40;66.90;;;;;;5010916;28;20641;-79
2023/04/28 08:54:16;;;;;;;7.43;2.90;;;16.30;66.00;;;;;;4993843;28;20228;-81
2023/04/28 08:56:44;;;;;;;4.70;2.70;;;16.20;67.60;;;;;;5009809;28;20782;-80
2023/04/28 08:59:12;;;;;;;7.87;3.40;;;16.20;69.40;;;;;;5013158;28;20222;-82
2023/04/28 09:01:39;;;;;;;7.30;3.00;;;16.10;67.00;;;;;;5007173;28;20229;-80
2023/04/28 09:04:05;;;;;;;4.67;2.57;;;16.00;69.90;;;;;;5001633;28;20721;-80
2023/04/28 09:06:36;;;;;;;5.27;3.23;;;16.10;70.90;;;;;;5002247;28;20221;-79
2023/04/28 09:09:19;;;;;;;4.93;2.90;;;16.10;69.70;;;;;;4998347;28;20210;-79
2023/04/28 09:11:57;;;;;;;3.63;2.80;;;16.10;65.70;;;;;;5001896;28;20221;-78
2023/04/28 09:14:24;;;;;;;8.03;3.10;;;16.10;66.90;;;;;;5008952;28;20247;-78
2023/04/28 09:16:51;;;;;;;6.00;3.20;;;16.20;69.20;;;;;;5003057;28;21059;-83
2023/04/28 09:19:21;;;;;;;5.67;2.97;;;16.20;67.00;;;;;;5003635;28;20213;-78
2023/04/28 09:21:51;;;;;;;7.47;3.10;;;16.20;67.60;;;;;;4986086;28;20340;-80
2023/04/28 09:24:32;;;;;;;5.37;3.43;;;16.10;64.30;;;;;;4990048;28;20227;-78
2023/04/28 09:26:59;;;;;;;4.67;3.10;;;16.00;65.80;;;;;;4999985;28;20311;-78
2023/04/28 09:29:26;;;;;;;5.43;2.80;;;16.00;67.90;;;;;;5007058;28;20229;-80
2023/04/28 09:31:53;;;;;;;5.53;2.60;;;16.00;68.70;;;;;;5000375;28;20360;-78
2023/04/28 09:34:20;;;;;;;3.67;2.73;;;16.00;69.60;;;;;;4986162;28;20900;-78
2023/04/28 09:36:48;;;;;;;7.63;3.20;;;16.00;71.10;;;;;;5004296;28;20218;-78
2023/04/28 09:39:15;;;;;;;4.87;3.13;;;16.00;66.60;;;;;;5005287;28;20224;-78
2023/04/28 09:41:44;;;;;;;7.07;3.77;;;16.00;68.70;;;;;;5006513;28;20217;-76
2023/04/28 09:44:14;;;;;;;4.63;3.30;;;16.00;67.70;;;;;;5000569;28;20271;-75
2023/04/28 09:46:42;;;;;;;5.03;3.40;;;16.00;66.60;;;;;;5000613;28;20228;-76
2023/04/28 09:49:08;;;;;;;5.27;3.13;;;15.90;68.80;;;;;;5012700;28;20224;-76
2023/04/28 09:51:35;;;;;;;6.53;3.50;;;15.90;68.70;;;;;;5009628;28;20629;-76
2023/04/28 09:54:03;;;;;;;4.67;3.23;;;15.90;68.70;;;;;;5014612;28;20320;-76
2023/04/28 09:56:32;;;;;;;4.57;3.27;;;15.80;66.60;;;;;;5001033;28;20775;-76
2023/04/28 09:58:59;;;;;;;4.27;3.07;;;15.80;69.90;;;;;;5006688;28;20213;-76
2023/04/28 10:01:28;;;;;;;5.27;3.27;;;15.90;71.20;;;;;;5007359;28;20323;-76
2023/04/28 10:03:57;;;;;;;8.93;3.93;;;16.00;68.60;;;;;;4987117;28;20247;-77
2023/04/28 10:06:26;;;;;;;5.40;3.50;;;16.00;66.70;;;;;;5003913;28;20601;-77
2023/04/28 10:08:53;;;;;;;5.60;3.40;;;16.00;68.00;;;;;;5007291;28;20256;-76
2023/04/28 10:11:21;;;;;;;4.97;3.70;;;16.20;68.90;;;;;;5007901;28;20221;-76
2023/04/28 10:13:49;;;;;;;6.07;3.50;;;16.20;67.60;;;;;;5003420;28;20236;-77
2023/04/28 10:16:17;;;;;;;5.80;3.50;;;16.40;70.30;;;;;;5007443;28;20304;-76
2023/04/28 10:18:45;;;;;;;6.87;4.17;;;16.60;69.80;;;;;;5005775;28;20240;-76
2023/04/28 10:21:16;;;;;;;4.67;3.17;;;16.90;67.60;;;;;;4997376;28;20303;-76
2023/04/28 10:24:03;;;;;;;3.87;3.30;;;17.00;68.40;;;;;;5008677;28;20229;-76
2023/04/28 10:27:07;;;;;;;4.87;3.20;;;17.10;65.30;;;;;;5002792;28;20780;-77
2023/04/28 10:29:34;;;;;;;6.50;3.40;;;17.30;68.60;;;;;;5006897;28;20229;-77
2023/04/28 10:32:25;;;;;;;7.13;3.60;;;17.40;68.50;;;;;;4990000;28;20236;-79
2023/04/28 10:34:52;;;;;;;8.43;3.70;;;17.50;67.40;;;;;;5008346;28;20240;-77
2023/04/28 10:37:19;;;;;;;3.43;2.90;;;17.60;68.20;;;;;;5004737;28;20224;-76
2023/04/28 10:40:23;;;;;;;4.77;3.37;;;17.80;68.90;;;;;;5002460;28;20762;-77
2023/04/28 10:42:56;;;;;;;5.00;3.10;;;17.80;65.40;;;;;;5008402;28;20224;-76
2023/04/28 10:46:02;;;;;;;6.37;3.43;;;17.90;66.70;;;;;;5006856;28;20222;-77
2023/04/28 10:48:55;;;;;;;5.68;3.38;;;18.00;66.80;;;;;;5014194;28;20994;-77
2023/04/28 10:51:24;;;;;;;5.07;3.38;;;18.00;65.00;;;;;;5000305;28;20590;-76
2023/04/28 10:54:15;;;;;;;5.63;3.10;;;18.10;67.20;;;;;;4993306;28;20272;-76
2023/04/28 10:57:26;;;;;;;5.45;3.53;;;18.20;65.90;;;;;;5015521;28;20228;-76
2023/04/28 11:00:27;;;;;;;4.30;3.00;;;18.20;65.70;;;;;;4996861;28;20250;-75
2023/04/28 11:02:54;;;;;;;5.18;3.63;;;18.40;65.10;;;;;;4996503;28;20265;-77
2023/04/28 11:05:21;;;;;;;4.70;2.95;;;18.60;66.80;;;;;;5011595;28;20300;-75
2023/04/28 11:08:27;;;;;;;4.20;3.65;;;18.70;67.10;;;;;;5025803;28;20275;-76
2023/04/28 11:11:19;;;;;;;6.57;3.50;;;18.90;65.80;;;;;;5011962;28;20224;-76
2023/04/28 11:13:47;;;;;;;4.72;3.40;;;19.10;65.20;;;;;;5008108;28;20333;-75
2023/04/28 11:16:17;;;;;;;4.47;3.65;;;19.20;65.70;;;;;;4991619;28;20240;-77
2023/04/28 11:18:53;;;;;;;4.65;3.50;;;19.10;58.40;;;;;;5009822;28;20240;-76
2023/04/28 11:21:20;;;;;;;5.28;3.78;;;19.10;63.50;;;;;;5014293;28;20256;-76
2023/04/28 11:23:48;;;;;;;6.32;3.63;;;19.00;63.00;;;;;;5016303;28;20237;-77
2023/04/28 11:26:15;;;;;;;7.78;4.30;;;19.00;64.10;;;;;;5011077;28;20221;-76
2023/04/28 11:28:50;;;;;;;7.65;4.18;;;19.00;62.20;;;;;;5015946;28;20697;-76
2023/04/28 11:31:20;;;;;;;5.95;4.32;;;18.90;59.30;;;;;;5007252;28;20295;-77
2023/04/28 11:33:52;;;;;;;7.07;4.43;;;18.80;59.60;;;;;;5014986;28;20246;-76
2023/04/28 11:36:31;;;;;;;6.38;3.97;;;18.70;60.00;;;;;;4994869;28;20221;-77
2023/04/28 11:38:58;;;;;;;7.13;4.57;;;18.50;60.30;;;;;;5018025;28;20282;-76
2023/04/28 11:41:26;;;;;;;5.40;3.40;;;18.40;60.40;;;;;;5015863;28;20820;-76
2023/04/28 11:43:53;;;;;;;6.30;3.80;;;18.30;60.70;;;;;;5013781;28;20225;-76
2023/04/28 11:46:23;;;;;;;5.28;3.90;;;18.20;62.40;;;;;;5011947;28;20707;-76
2023/04/28 11:49:00;;;;;;;6.32;3.63;;;18.10;61.80;;;;;;5014614;28;20237;-75
2023/04/28 11:51:32;;;;;;;9.40;4.70;;;18.10;62.20;;;;;;5018400;28;20225;-76
2023/04/28 11:53:59;;;;;;;5.97;3.97;;;18.10;61.70;;;;;;5015787;28;20228;-76
2023/04/28 11:56:26;;;;;;;7.63;3.90;;;18.10;62.50;;;;;;5016953;28;20236;-76
2023/04/28 11:59:07;;;;;;;6.43;3.78;;;18.10;63.30;;;;;;5019144;28;20310;-77
2023/04/28 12:01:44;;;;;;;6.90;3.90;;;18.10;59.90;;;;;;5012955;28;20316;-76
2023/04/28 12:04:11;;;;;;;6.75;4.07;;;18.20;62.00;;;;;;4991260;28;20236;-80
2023/04/28 12:06:38;;;;;;;9.30;4.25;;;18.10;60.10;;;;;;5016633;28;20225;-79
2023/04/28 12:09:16;;;;;;;8.07;4.20;;;18.00;60.70;;;;;;5005201;28;20312;-82
2023/04/28 12:11:53;;;;;;;10.33;4.00;;;17.80;58.90;;;;;;5012894;28;20225;-79
2023/04/28 12:14:20;;;;;;;7.17;4.53;;;17.70;61.30;;;;;;4997529;28;20695;-81
2023/04/28 12:16:49;;;;;;;5.73;3.93;;;17.60;62.50;;;;;;5000577;28;20237;-79
2023/04/28 12:19:17;;;;;;;6.07;4.07;;;17.50;62.50;;;;;;5010779;28;20606;-80
2023/04/28 12:21:44;;;;;;;8.43;4.75;;;17.40;63.50;;;;;;4997169;28;20318;-80
2023/04/28 12:24:16;;;;;;;6.50;3.83;;;17.40;63.50;;;;;;5011245;28;20918;-79
2023/04/28 12:26:43;;;;;;;8.40;4.40;;;17.40;63.60;;;;;;5014372;28;20229;-79
2023/04/28 12:29:10;;;;;;;6.43;4.20;;;17.50;63.70;;;;;;5002282;28;20224;-79
2023/04/28 12:31:51;;;;;;;7.10;5.07;;;17.50;63.90;;;;;;5014554;28;20275;-79
2023/04/28 12:34:18;;;;;;;6.30;4.22;;;17.40;60.20;;;;;;5015970;28;20251;-81
2023/04/28 12:36:46;;;;;;;7.10;4.40;;;17.40;61.70;;;;;;4994799;28;20291;-80
2023/04/28 12:39:18;;;;;;;9.63;4.23;;;17.30;62.20;;;;;;5016112;28;20220;-83
2023/04/28 12:41:45;;;;;;;8.50;4.57;;;17.30;63.00;;;;;;5006888;28;20243;-79
2023/04/28 12:44:12;;;;;;;9.30;4.73;;;17.20;62.30;;;;;;5013481;28;20240;-80
2023/04/28 12:46:38;;;;;;;7.20;4.47;;;17.10;61.20;;;;;;5023106;28;20238;-78
2023/04/28 12:49:06;;;;;;;8.63;4.80;;;17.00;63.20;;;;;;5016684;28;20233;-80
2023/04/28 12:51:34;;;;;;;5.83;4.73;;;16.90;62.00;;;;;;5021193;28;20225;-79
2023/04/28 12:54:01;;;;;;;5.70;4.53;;;16.80;62.30;;;;;;5011326;28;20575;-81
2023/04/28 12:56:28;;;;;;;6.40;4.60;;;16.60;62.70;;;;;;5016609;28;20228;-80
2023/04/28 12:58:55;;;;;;;5.73;4.53;;;16.50;62.30;;;;;;5015116;28;20236;-79
2023/04/28 13:01:21;;;;;;;6.90;4.73;;;16.30;63.70;;;;;;5013625;28;20243;-81